createdAt,value
2023-02-19T00:01:53.690Z,6.07
2023-02-19T00:04:24.162Z,6.00
2023-02-19T00:06:53.123Z,5.82
2023-02-19T00:09:21.879Z,7.18
2023-02-19T00:11:48.937Z,6.22
2023-02-19T00:14:24.013Z,6.00
2023-02-19T00:16:53.077Z,7.32
2023-02-19T00:19:23.214Z,6.80
2023-02-19T00:21:52.928Z,6.88
2023-02-19T00:24:20.134Z,9.40
2023-02-19T00:26:51.828Z,6.55
2023-02-19T00:29:20.866Z,7.28
2023-02-19T00:31:50.436Z,7.20
2023-02-19T00:34:22.410Z,6.88
2023-02-19T00:36:49.022Z,6.80
2023-02-19T00:39:20.688Z,6.75
2023-02-19T00:41:47.490Z,6.90
2023-02-19T00:44:20.932Z,7.63
2023-02-19T00:46:48.326Z,7.15
2023-02-19T00:49:25.166Z,6.65
2023-02-19T00:51:53.988Z,9.50
2023-02-19T00:54:23.476Z,7.32
2023-02-19T00:56:50.471Z,8.02
2023-02-19T00:59:17.388Z,6.03
2023-02-19T01:01:46.533Z,6.55
2023-02-19T01:04:13.405Z,8.43
2023-02-19T01:06:41.060Z,6.38
2023-02-19T01:09:09.699Z,6.55
2023-02-19T01:11:36.297Z,7.80
2023-02-19T01:14:08.440Z,8.68
2023-02-19T01:16:35.112Z,8.13
2023-02-19T01:19:03.871Z,9.48
2023-02-19T01:21:33.205Z,9.30
2023-02-19T01:23:59.901Z,8.85
2023-02-19T01:26:30.156Z,11.10
2023-02-19T01:29:00.273Z,9.10
2023-02-19T01:31:30.727Z,9.88
2023-02-19T01:34:01.916Z,10.18
2023-02-19T01:36:32.003Z,8.02
2023-02-19T01:39:03.813Z,8.50
2023-02-19T01:41:41.158Z,10.98
2023-02-19T01:44:17.676Z,17.08
2023-02-19T01:46:49.632Z,8.93
2023-02-19T01:49:20.954Z,8.85
2023-02-19T01:51:54.331Z,8.85
2023-02-19T01:54:25.649Z,7.95
2023-02-19T01:56:52.880Z,8.88
2023-02-19T01:59:19.942Z,8.07
2023-02-19T02:01:48.699Z,12.95
2023-02-19T02:04:19.488Z,9.80
2023-02-19T02:06:57.190Z,11.38
2023-02-19T02:09:47.578Z,9.07
2023-02-19T02:12:14.599Z,8.52
2023-02-19T02:14:45.146Z,9.63
2023-02-19T02:17:17.365Z,9.60
2023-02-19T02:20:31.100Z,10.13
2023-02-19T02:23:19.623Z,11.77
2023-02-19T02:25:58.019Z,10.18
2023-02-19T02:28:36.407Z,12.27
2023-02-19T02:31:21.383Z,12.18
2023-02-19T02:34:04.611Z,12.30
2023-02-19T02:36:36.033Z,12.07
2023-02-19T02:39:10.443Z,13.05
2023-02-19T02:41:44.873Z,15.25
2023-02-19T02:44:13.075Z,13.43
2023-02-19T02:46:44.953Z,14.85
2023-02-19T02:51:56.388Z,11.52
2023-02-19T02:54:51.865Z,12.55
2023-02-19T02:57:25.960Z,12.73
2023-02-19T02:59:58.527Z,15.65
2023-02-19T03:02:31.017Z,13.27
2023-02-19T03:05:37.925Z,17.02
2023-02-19T03:08:04.825Z,14.07
2023-02-19T03:10:39.683Z,14.80
2023-02-19T03:13:30.410Z,18.92
2023-02-19T03:16:26.465Z,19.52
2023-02-19T03:19:16.935Z,14.52
2023-02-19T03:21:57.288Z,19.15
2023-02-19T03:24:47.944Z,18.55
2023-02-19T03:27:16.889Z,17.23
2023-02-19T03:29:50.083Z,19.95
2023-02-19T03:32:34.146Z,18.27
2023-02-19T03:35:11.459Z,18.75
2023-02-19T03:37:48.753Z,18.27
2023-02-19T03:40:18.898Z,21.58
2023-02-19T03:43:25.869Z,19.50
2023-02-19T03:46:07.719Z,19.30
2023-02-19T03:48:51.338Z,22.37
2023-02-19T03:51:32.515Z,21.42
2023-02-19T03:54:12.870Z,21.38
2023-02-19T03:57:16.804Z,18.17
2023-02-19T04:00:00.309Z,20.52
2023-02-19T04:02:42.880Z,23.13
2023-02-19T04:05:21.001Z,21.02
2023-02-19T04:07:53.050Z,22.05
2023-02-19T04:10:29.057Z,20.27
2023-02-19T04:13:13.993Z,20.58
2023-02-19T04:15:44.145Z,21.13
2023-02-19T04:18:22.742Z,23.10
2023-02-19T04:20:55.876Z,23.65
2023-02-19T04:23:29.138Z,23.65
2023-02-19T04:26:02.237Z,21.52
2023-02-19T04:28:29.841Z,20.27
2023-02-19T04:30:56.442Z,21.55
2023-02-19T04:33:22.998Z,28.92
2023-02-19T04:35:51.718Z,23.85
2023-02-19T04:38:18.294Z,23.58
2023-02-19T04:40:46.110Z,23.17
2023-02-19T04:43:18.448Z,27.38
2023-02-19T04:48:18.004Z,25.25
2023-02-19T04:50:44.601Z,22.88
2023-02-19T04:53:16.302Z,22.48
2023-02-19T04:55:42.881Z,22.60
2023-02-19T04:58:12.185Z,22.42
2023-02-19T05:00:38.781Z,26.48
2023-02-19T05:03:05.405Z,22.27
2023-02-19T05:05:37.383Z,24.25
2023-02-19T05:08:06.622Z,24.13
2023-02-19T05:10:33.778Z,21.23
2023-02-19T05:13:00.353Z,25.10
2023-02-19T05:15:29.459Z,24.20
2023-02-19T05:17:58.023Z,20.83
2023-02-19T05:20:24.985Z,22.75
2023-02-19T05:22:56.469Z,24.08
2023-02-19T05:25:25.270Z,18.63
2023-02-19T05:28:14.753Z,19.98
2023-02-19T05:30:41.314Z,16.40
2023-02-19T05:33:09.109Z,20.15
2023-02-19T05:35:41.665Z,19.90
2023-02-19T05:38:11.307Z,14.45
2023-02-19T05:40:46.388Z,12.73
2023-02-19T05:43:13.639Z,17.33
2023-02-19T05:45:45.620Z,17.73
2023-02-19T05:48:12.797Z,18.30
2023-02-19T05:50:39.988Z,13.70
2023-02-19T05:53:12.635Z,13.57
2023-02-19T05:55:39.274Z,16.15
2023-02-19T05:58:08.330Z,16.02
2023-02-19T06:00:39.325Z,15.25
2023-02-19T06:03:10.217Z,13.18
2023-02-19T06:05:39.774Z,16.48
2023-02-19T06:08:09.337Z,12.40
2023-02-19T06:10:38.303Z,11.50
2023-02-19T06:13:04.895Z,15.43
2023-02-19T06:15:34.844Z,17.00
2023-02-19T06:18:06.220Z,17.73
2023-02-19T06:20:35.778Z,16.30
2023-02-19T06:23:05.342Z,13.07
2023-02-19T06:25:31.865Z,13.55
2023-02-19T06:27:58.498Z,13.38
2023-02-19T06:30:25.191Z,11.77
2023-02-19T06:32:53.670Z,15.18
2023-02-19T06:35:20.539Z,12.77
2023-02-19T06:37:48.492Z,16.40
2023-02-19T06:40:18.286Z,16.00
2023-02-19T06:42:44.925Z,12.68
2023-02-19T06:45:19.060Z,11.93
2023-02-19T06:47:50.649Z,15.32
2023-02-19T06:50:17.245Z,9.70
2023-02-19T06:52:44.146Z,11.98
2023-02-19T06:55:13.338Z,13.10
2023-02-19T06:57:39.905Z,11.82
2023-02-19T07:00:07.079Z,15.77
2023-02-19T07:02:33.687Z,14.02
2023-02-19T07:05:02.743Z,19.92
2023-02-19T07:07:31.855Z,15.13
2023-02-19T07:09:58.443Z,13.63
2023-02-19T07:12:29.713Z,15.07
2023-02-19T07:14:58.678Z,16.52
2023-02-19T07:17:25.301Z,10.48
2023-02-19T07:19:54.442Z,13.15
2023-02-19T07:22:21.116Z,12.88
2023-02-19T07:24:53.412Z,9.98
2023-02-19T07:27:19.994Z,11.30
2023-02-19T07:29:51.860Z,8.38
2023-02-19T07:32:20.380Z,11.40
2023-02-19T07:34:49.362Z,10.88
2023-02-19T07:37:15.951Z,14.27
2023-02-19T07:39:42.523Z,9.27
2023-02-19T07:42:09.144Z,11.10
2023-02-19T07:44:37.618Z,7.97
2023-02-19T07:47:04.222Z,9.30
2023-02-19T07:49:30.846Z,11.80
2023-02-19T07:51:57.395Z,8.43
2023-02-19T07:54:26.190Z,8.82
2023-02-19T07:56:52.735Z,9.95
2023-02-19T07:59:21.455Z,10.55
2023-02-19T08:02:07.062Z,11.68
2023-02-19T08:04:33.710Z,13.70
2023-02-19T08:07:02.503Z,10.02
2023-02-19T08:09:32.149Z,12.27
2023-02-19T08:12:17.637Z,8.82
2023-02-19T08:14:44.271Z,7.68
2023-02-19T08:17:10.867Z,12.07
2023-02-19T08:19:37.571Z,11.57
2023-02-19T08:22:04.190Z,8.85
2023-02-19T08:24:33.631Z,10.38
2023-02-19T08:27:00.281Z,11.77
2023-02-19T08:29:26.890Z,8.25
2023-02-19T08:31:53.485Z,8.43
2023-02-19T08:34:21.292Z,9.07
2023-02-19T08:36:47.852Z,11.25
2023-02-19T08:39:14.450Z,9.60
2023-02-19T08:41:41.054Z,7.78
2023-02-19T08:44:07.657Z,9.40
2023-02-19T08:46:36.597Z,7.78
2023-02-19T08:49:03.349Z,11.52
2023-02-19T08:51:29.945Z,15.80
2023-02-19T08:53:56.496Z,9.07
2023-02-19T08:56:23.122Z,5.95
2023-02-19T08:58:49.700Z,8.95
2023-02-19T09:01:18.375Z,8.05
2023-02-19T09:03:45.349Z,5.40
2023-02-19T09:06:17.748Z,8.15
2023-02-19T09:11:11.679Z,6.40
2023-02-19T09:13:38.466Z,8.10
2023-02-19T09:16:05.865Z,9.55
2023-02-19T09:18:33.068Z,8.73
2023-02-19T09:21:01.427Z,11.77
2023-02-19T09:23:28.772Z,8.90
2023-02-19T09:26:00.561Z,10.82
2023-02-19T09:28:28.087Z,9.18
2023-02-19T09:30:54.758Z,12.10
2023-02-19T09:33:21.405Z,8.52
2023-02-19T09:35:48.968Z,7.55
2023-02-19T09:38:15.521Z,6.90
2023-02-19T09:40:42.140Z,8.32
2023-02-19T09:43:16.478Z,7.93
2023-02-19T09:45:45.503Z,10.38
2023-02-19T09:48:12.554Z,8.90
2023-02-19T09:50:48.471Z,6.57
2023-02-19T09:53:26.308Z,8.82
2023-02-19T09:55:53.064Z,7.10
2023-02-19T09:58:38.301Z,6.95
2023-02-19T10:01:05.948Z,6.50
2023-02-19T10:03:39.084Z,8.23
2023-02-19T10:06:16.221Z,9.10
2023-02-19T10:08:46.578Z,9.23
2023-02-19T10:11:16.223Z,10.13
2023-02-19T10:13:50.690Z,10.85
2023-02-19T10:16:22.413Z,7.50
2023-02-19T10:18:49.431Z,10.15
2023-02-19T10:21:25.450Z,8.07
2023-02-19T10:23:56.377Z,6.10
2023-02-19T10:26:24.025Z,8.73
2023-02-19T10:28:50.649Z,9.98
2023-02-19T10:31:21.044Z,9.52
2023-02-19T10:33:52.027Z,6.90
2023-02-19T10:36:37.141Z,9.30
2023-02-19T10:39:20.662Z,9.25
2023-02-19T10:41:51.575Z,7.40
2023-02-19T10:44:27.282Z,7.75
2023-02-19T10:46:57.782Z,11.18
2023-02-19T10:49:31.843Z,8.65
2023-02-19T10:52:17.435Z,8.10
2023-02-19T10:54:45.526Z,10.75
2023-02-19T10:57:15.176Z,8.75
2023-02-19T10:59:57.995Z,6.25
2023-02-19T11:02:25.816Z,5.03
2023-02-19T11:05:30.741Z,6.00
2023-02-19T11:07:57.521Z,6.03
2023-02-19T11:10:28.767Z,5.10
2023-02-19T11:13:01.398Z,4.55
2023-02-19T11:15:33.907Z,6.32
2023-02-19T11:18:06.638Z,8.20
2023-02-19T11:20:33.549Z,6.00
2023-02-19T11:23:06.126Z,7.10
2023-02-19T11:25:33.585Z,4.72
2023-02-19T11:28:20.467Z,4.90
2023-02-19T11:30:48.358Z,4.38
2023-02-19T11:33:27.146Z,4.13
2023-02-19T11:36:33.290Z,5.03
2023-02-19T11:39:18.257Z,4.85
2023-02-19T11:41:50.289Z,6.60
2023-02-19T11:44:46.135Z,7.43
2023-02-19T11:47:32.951Z,7.22
2023-02-19T11:50:15.029Z,4.97
2023-02-19T11:52:55.697Z,8.25
2023-02-19T11:55:45.244Z,6.97
2023-02-19T11:58:40.593Z,5.60
2023-02-19T12:01:40.938Z,5.50
2023-02-19T12:04:31.818Z,3.95
2023-02-19T12:07:24.319Z,7.30
2023-02-19T12:10:18.511Z,7.78
2023-02-19T12:13:13.428Z,4.65
2023-02-19T12:18:34.468Z,3.70
2023-02-19T12:21:21.300Z,5.78
2023-02-19T12:23:47.822Z,6.03
2023-02-19T12:26:42.486Z,8.35
2023-02-19T12:29:38.041Z,5.63
2023-02-19T12:32:30.682Z,6.32
2023-02-19T12:35:22.606Z,6.50
2023-02-19T12:37:57.197Z,5.77
2023-02-19T12:40:43.459Z,4.93
2023-02-19T12:43:18.278Z,6.65
2023-02-19T12:45:58.701Z,5.28
2023-02-19T12:48:31.346Z,4.88
2023-02-19T12:51:06.288Z,6.10
2023-02-19T12:53:45.877Z,3.80
2023-02-19T12:56:42.629Z,5.93
2023-02-19T12:59:24.754Z,4.97
2023-02-19T13:02:14.944Z,3.70
2023-02-19T13:04:51.101Z,5.95
2023-02-19T13:07:23.973Z,4.25
2023-02-19T13:10:10.006Z,5.53
2023-02-19T13:12:43.212Z,6.57
2023-02-19T13:15:17.604Z,4.60
2023-02-19T13:17:53.758Z,6.35
2023-02-19T13:20:39.798Z,4.43
2023-02-19T13:23:33.298Z,5.88
2023-02-19T13:26:25.433Z,7.30
2023-02-19T13:29:12.251Z,5.30
2023-02-19T13:31:50.669Z,9.50
2023-02-19T13:34:48.485Z,4.68
2023-02-19T13:37:16.582Z,5.38
2023-02-19T13:39:49.890Z,4.18
2023-02-19T13:42:28.653Z,4.97
2023-02-19T13:44:57.974Z,6.13
2023-02-19T13:47:49.555Z,4.72
2023-02-19T13:50:25.381Z,5.47
2023-02-19T13:52:56.057Z,4.55
2023-02-19T13:55:55.278Z,5.82
2023-02-19T13:58:35.114Z,5.90
2023-02-19T14:01:08.967Z,8.35
2023-02-19T14:03:54.261Z,5.95
2023-02-19T14:06:21.564Z,5.90
2023-02-19T14:08:53.294Z,6.65
2023-02-19T14:11:42.797Z,4.78
2023-02-19T14:14:27.623Z,5.50
2023-02-19T14:17:05.510Z,8.32
2023-02-19T14:20:11.546Z,8.90
2023-02-19T14:22:49.750Z,9.85
2023-02-19T14:25:28.263Z,8.85
2023-02-19T14:28:16.606Z,9.35
2023-02-19T14:30:51.576Z,7.93
2023-02-19T14:33:32.625Z,7.75
2023-02-19T14:36:25.240Z,9.00
2023-02-19T14:38:56.268Z,8.55
2023-02-19T14:41:24.249Z,10.45
2023-02-19T14:43:53.723Z,9.60
2023-02-19T14:46:51.724Z,9.85
2023-02-19T14:49:25.828Z,8.15
2023-02-19T14:51:59.756Z,8.57
2023-02-19T14:54:38.798Z,12.43
2023-02-19T14:57:14.398Z,9.73
2023-02-19T14:59:51.368Z,10.73
2023-02-19T15:02:20.578Z,8.45
2023-02-19T15:04:47.458Z,7.22
2023-02-19T15:07:20.384Z,8.82
2023-02-19T15:09:53.413Z,7.10
2023-02-19T15:12:26.406Z,8.10
2023-02-19T15:14:59.523Z,9.88
2023-02-19T15:17:30.168Z,8.93
2023-02-19T15:20:02.841Z,7.80
2023-02-19T15:22:32.830Z,4.95
2023-02-19T15:25:04.125Z,5.97
2023-02-19T15:27:32.826Z,4.15
2023-02-19T15:29:59.762Z,3.92
2023-02-19T15:32:27.707Z,5.15
2023-02-19T15:34:59.546Z,2.30
2023-02-19T15:37:28.957Z,2.50
2023-02-19T15:39:57.671Z,2.72
2023-02-19T15:42:31.975Z,2.92
2023-02-19T15:45:01.353Z,2.15
2023-02-19T15:47:43.668Z,1.60
2023-02-19T15:50:26.418Z,1.45
2023-02-19T15:53:25.678Z,2.22
2023-02-19T15:56:11.946Z,3.25
2023-02-19T15:58:46.910Z,1.20
2023-02-19T16:01:25.376Z,1.15
2023-02-19T16:03:53.954Z,1.90
2023-02-19T16:06:23.618Z,1.00
2023-02-19T16:09:01.750Z,2.95
2023-02-19T16:11:59.480Z,1.38
2023-02-19T16:14:34.210Z,0.80
2023-02-19T16:17:21.123Z,0.93
2023-02-19T16:20:01.143Z,1.08
2023-02-19T16:22:34.589Z,1.20
2023-02-19T16:25:04.537Z,1.52
2023-02-19T16:27:35.134Z,1.35
2023-02-19T16:30:25.499Z,0.70
2023-02-19T16:33:31.678Z,0.90
2023-02-19T16:35:58.782Z,1.05
2023-02-19T16:38:25.398Z,1.23
2023-02-19T16:40:52.258Z,1.25
2023-02-19T16:43:26.890Z,1.45
2023-02-19T16:45:53.647Z,2.22
2023-02-19T16:48:22.109Z,1.13
2023-02-19T16:50:48.745Z,4.13
2023-02-19T16:53:20.848Z,1.13
2023-02-19T16:55:47.886Z,2.00
2023-02-19T16:58:14.490Z,0.77
2023-02-19T17:00:41.318Z,0.95
2023-02-19T17:03:11.566Z,1.35
2023-02-19T17:05:39.781Z,1.05
2023-02-19T17:08:55.986Z,1.50
2023-02-19T17:11:25.146Z,2.33
2023-02-19T17:13:51.810Z,1.10
2023-02-19T17:16:24.273Z,0.40
2023-02-19T17:18:51.177Z,1.15
2023-02-19T17:21:29.515Z,0.20
2023-02-19T17:23:59.395Z,0.32
2023-02-19T17:26:28.833Z,0.85
2023-02-19T17:29:03.680Z,1.15
2023-02-19T17:31:30.489Z,1.40
2023-02-19T17:33:58.749Z,2.47
2023-02-19T17:36:30.531Z,0.50
2023-02-19T17:39:01.721Z,1.77
2023-02-19T17:41:29.110Z,0.70
2023-02-19T17:43:55.898Z,1.67
2023-02-19T17:46:25.095Z,1.15
2023-02-19T17:48:52.551Z,1.55
2023-02-19T17:51:21.592Z,0.50
2023-02-19T17:53:48.255Z,0.60
2023-02-19T17:56:20.733Z,0.73
2023-02-19T17:58:47.673Z,1.63
2023-02-19T18:01:14.630Z,0.80
2023-02-19T18:03:41.770Z,1.02
2023-02-19T18:06:08.567Z,1.00
2023-02-19T18:08:35.233Z,1.05
2023-02-19T18:11:02.846Z,0.40
2023-02-19T18:13:32.206Z,0.40
2023-02-19T18:15:58.791Z,0.10
2023-02-19T18:18:25.458Z,0.63
2023-02-19T18:20:52.306Z,0.40
2023-02-19T18:23:21.116Z,0.70
2023-02-19T18:25:47.738Z,0.77
2023-02-19T18:28:14.956Z,0.52
2023-02-19T18:30:41.726Z,0.30
2023-02-19T18:33:10.693Z,0.30
2023-02-19T18:35:46.358Z,0.95
2023-02-19T18:38:13.481Z,0.55
2023-02-19T18:40:47.428Z,0.50
2023-02-19T18:43:14.058Z,0.20
2023-02-19T18:45:43.110Z,1.23
2023-02-19T18:48:10.861Z,1.17
2023-02-19T18:50:39.716Z,0.50
2023-02-19T18:53:09.474Z,0.90
2023-02-19T18:55:38.262Z,0.30
2023-02-19T18:58:07.411Z,1.30
2023-02-19T19:00:38.641Z,1.23
2023-02-19T19:03:06.315Z,0.95
2023-02-19T19:05:35.574Z,1.63
2023-02-19T19:08:10.127Z,0.95
2023-02-19T19:10:36.741Z,1.52
2023-02-19T19:13:03.310Z,0.50
2023-02-19T19:15:31.195Z,0.30
2023-02-19T19:18:00.337Z,0.40
2023-02-19T19:20:26.927Z,1.48
2023-02-19T19:22:56.494Z,0.75
2023-02-19T19:25:30.589Z,1.65
2023-02-19T19:27:59.493Z,1.70
2023-02-19T19:30:30.357Z,1.70
2023-02-19T19:32:58.023Z,1.40
2023-02-19T19:35:24.570Z,0.98
2023-02-19T19:37:51.414Z,0.77
2023-02-19T19:40:19.844Z,0.70
2023-02-19T19:42:52.020Z,1.42
2023-02-19T19:45:18.749Z,0.77
2023-02-19T19:47:48.339Z,1.17
2023-02-19T19:50:18.181Z,0.85
2023-02-19T19:52:49.090Z,1.13
2023-02-19T19:55:18.293Z,1.88
2023-02-19T19:57:46.842Z,0.90
2023-02-19T20:00:19.927Z,1.05
2023-02-19T20:02:46.972Z,0.70
2023-02-19T20:05:19.646Z,0.52
2023-02-19T20:07:54.652Z,1.95
2023-02-19T20:10:23.888Z,1.00
2023-02-19T20:12:50.891Z,0.55
2023-02-19T20:15:24.143Z,2.30
2023-02-19T20:17:53.233Z,1.08
2023-02-19T20:20:22.446Z,0.85
2023-02-19T20:22:54.494Z,1.70
2023-02-19T20:25:24.987Z,0.73
2023-02-19T20:27:54.067Z,1.17
2023-02-19T20:30:23.535Z,0.70
2023-02-19T20:32:50.190Z,1.40
2023-02-19T20:35:17.697Z,0.60
2023-02-19T20:37:47.884Z,0.98
2023-02-19T20:40:17.442Z,1.33
2023-02-19T20:42:43.996Z,1.83
2023-02-19T20:45:10.956Z,1.55
2023-02-19T20:47:41.950Z,1.88
2023-02-19T20:50:08.972Z,0.85
2023-02-19T20:52:37.736Z,1.23
2023-02-19T20:55:09.575Z,1.23
2023-02-19T20:57:42.378Z,1.67
2023-02-19T21:00:17.032Z,2.20
2023-02-19T21:02:48.570Z,2.45
2023-02-19T21:05:23.901Z,3.13
2023-02-19T21:07:50.489Z,1.98
2023-02-19T21:10:17.222Z,1.40
2023-02-19T21:12:50.442Z,2.75
2023-02-19T21:15:20.136Z,1.90
2023-02-19T21:17:52.452Z,2.80
2023-02-19T21:22:48.243Z,1.92
2023-02-19T21:25:14.845Z,1.83
2023-02-19T21:27:43.939Z,2.97
2023-02-19T21:30:11.963Z,5.60
2023-02-19T21:32:38.686Z,4.80
2023-02-19T21:35:05.783Z,5.25
2023-02-19T21:37:36.119Z,3.45
2023-02-19T21:40:06.376Z,3.83
2023-02-19T21:42:33.285Z,4.00
2023-02-19T21:45:02.829Z,4.53
2023-02-19T21:47:32.639Z,2.35
2023-02-19T21:50:01.465Z,3.28
2023-02-19T21:52:30.719Z,2.95
2023-02-19T21:54:57.961Z,3.35
2023-02-19T21:57:29.292Z,3.25
2023-02-19T22:00:00.298Z,7.80
2023-02-19T22:02:28.127Z,8.98
2023-02-19T22:04:54.941Z,7.82
2023-02-19T22:07:25.958Z,8.35
2023-02-19T22:10:00.693Z,6.88
2023-02-19T22:12:28.462Z,7.57
2023-02-19T22:14:55.139Z,5.75
2023-02-19T22:17:26.391Z,5.50
2023-02-19T22:19:55.365Z,7.13
2023-02-19T22:22:26.898Z,5.75
2023-02-19T22:24:53.623Z,5.97
2023-02-19T22:27:21.780Z,7.72
2023-02-19T22:29:49.190Z,6.85
2023-02-19T22:32:33.310Z,8.02
2023-02-19T22:35:03.678Z,10.40
2023-02-19T22:37:30.341Z,7.07
2023-02-19T22:39:58.991Z,9.73
2023-02-19T22:42:29.175Z,8.23
2023-02-19T22:44:56.767Z,9.93
2023-02-19T22:47:28.357Z,8.15
2023-02-19T22:49:54.914Z,9.30
2023-02-19T22:52:21.537Z,7.70
2023-02-19T22:54:50.721Z,6.93
2023-02-19T22:57:17.285Z,8.15
2023-02-19T22:59:47.330Z,9.13
2023-02-19T23:02:16.433Z,12.63
2023-02-19T23:04:47.718Z,10.10
2023-02-19T23:07:14.434Z,14.23
2023-02-19T23:09:41.087Z,11.23
2023-02-19T23:12:13.933Z,12.13
2023-02-19T23:14:42.954Z,11.45
2023-02-19T23:17:09.523Z,12.70
2023-02-19T23:19:44.046Z,13.25
2023-02-19T23:22:18.107Z,12.18
2023-02-19T23:24:44.659Z,11.32
2023-02-19T23:27:14.122Z,11.40
2023-02-19T23:29:44.396Z,10.30
2023-02-19T23:32:25.508Z,9.23
2023-02-19T23:34:52.225Z,8.77
2023-02-19T23:37:18.973Z,11.50
2023-02-19T23:39:45.555Z,12.45
2023-02-19T23:42:20.403Z,11.57
2023-02-19T23:44:49.493Z,10.98
2023-02-19T23:47:16.135Z,12.73
2023-02-19T23:49:43.938Z,10.77
2023-02-19T23:52:12.874Z,11.68
2023-02-19T23:54:43.819Z,12.00
2023-02-19T23:57:14.848Z,9.82
2023-02-19T23:59:43.344Z,10.32
